sensor_id;sensor_type;location;lat;lon;timestamp;pressure;altitude;pressure_sealevel;temperature;humidity
33404;BME280;19751;40.274;18.268;2023-04-23T00:00:33;101024.47;;;15.29;100.00
33404;BME280;19751;40.274;18.268;2023-04-23T00:03:05;101022.81;;;15.28;100.00
33404;BME280;19751;40.274;18.268;2023-04-23T00:05:34;101014.91;;;15.27;100.00
33404;BME280;19751;40.274;18.268;2023-04-23T00:08:02;101021.56;;;15.24;100.00
33404;BME280;19751;40.274;18.268;2023-04-23T00:10:28;101019.28;;;15.21;100.00
33404;BME280;19751;40.274;18.268;2023-04-23T00:12:54;101015.31;;;15.17;100.00
33404;BME280;19751;40.274;18.268;2023-04-23T00:15:19;101017.44;;;15.15;100.00
33404;BME280;19751;40.274;18.268;2023-04-23T00:17:47;101019.50;;;15.13;100.00
33404;BME280;19751;40.274;18.268;2023-04-23T00:20:14;101006.16;;;15.11;100.00
33404;BME280;19751;40.274;18.268;2023-04-23T00:22:41;101010.97;;;15.09;100.00
33404;BME280;19751;40.274;18.268;2023-04-23T00:25:08;101005.75;;;15.08;100.00
33404;BME280;19751;40.274;18.268;2023-04-23T00:27:33;101009.31;;;15.08;100.00
33404;BME280;19751;40.274;18.268;2023-04-23T00:29:59;101019.97;;;15.10;100.00
33404;BME280;19751;40.274;18.268;2023-04-23T00:32:24;101017.84;;;15.05;100.00
33404;BME280;19751;40.274;18.268;2023-04-23T00:34:50;101022.91;;;14.88;100.00
33404;BME280;19751;40.274;18.268;2023-04-23T00:37:16;101034.81;;;14.74;100.00
33404;BME280;19751;40.274;18.268;2023-04-23T00:39:42;101025.22;;;14.72;100.00
33404;BME280;19751;40.274;18.268;2023-04-23T00:42:08;101036.69;;;14.67;100.00
33404;BME280;19751;40.274;18.268;2023-04-23T00:44:38;101027.09;;;14.71;100.00
33404;BME280;19751;40.274;18.268;2023-04-23T00:47:04;101032.09;;;14.74;100.00
33404;BME280;19751;40.274;18.268;2023-04-23T00:49:32;101031.28;;;14.74;100.00
33404;BME280;19751;40.274;18.268;2023-04-23T00:51:57;101033.75;;;14.75;100.00
33404;BME280;19751;40.274;18.268;2023-04-23T00:54:23;101025.25;;;14.52;100.00
33404;BME280;19751;40.274;18.268;2023-04-23T00:56:49;101034.56;;;14.36;100.00
33404;BME280;19751;40.274;18.268;2023-04-23T00:59:14;101035.38;;;14.30;100.00
33404;BME280;19751;40.274;18.268;2023-04-23T01:01:40;101040.81;;;14.36;100.00
33404;BME280;19751;40.274;18.268;2023-04-23T01:04:06;101039.38;;;14.40;100.00
33404;BME280;19751;40.274;18.268;2023-04-23T01:06:34;101053.34;;;14.44;100.00
33404;BME280;19751;40.274;18.268;2023-04-23T01:08:59;101040.41;;;14.39;100.00
33404;BME280;19751;40.274;18.268;2023-04-23T01:11:25;101044.78;;;14.40;100.00
33404;BME280;19751;40.274;18.268;2023-04-23T01:13:51;101039.56;;;14.32;100.00
33404;BME280;19751;40.274;18.268;2023-04-23T01:16:17;101039.75;;;14.17;100.00
33404;BME280;19751;40.274;18.268;2023-04-23T01:18:42;101037.66;;;14.06;100.00
33404;BME280;19751;40.274;18.268;2023-04-23T01:21:09;101038.28;;;14.08;100.00
33404;BME280;19751;40.274;18.268;2023-04-23T01:23:38;101036.41;;;14.09;100.00
33404;BME280;19751;40.274;18.268;2023-04-23T01:26:04;101039.13;;;14.15;100.00
33404;BME280;19751;40.274;18.268;2023-04-23T01:28:31;101040.00;;;14.23;100.00
33404;BME280;19751;40.274;18.268;2023-04-23T01:30:57;101047.06;;;14.30;100.00
33404;BME280;19751;40.274;18.268;2023-04-23T01:33:23;101044.59;;;14.35;100.00
33404;BME280;19751;40.274;18.268;2023-04-23T01:35:50;101041.84;;;14.29;100.00
33404;BME280;19751;40.274;18.268;2023-04-23T01:38:16;101043.31;;;14.31;100.00
33404;BME280;19751;40.274;18.268;2023-04-23T01:40:42;101033.75;;;14.35;100.00
33404;BME280;19751;40.274;18.268;2023-04-23T01:43:08;101042.91;;;14.34;100.00
33404;BME280;19751;40.274;18.268;2023-04-23T01:45:34;101034.97;;;14.26;100.00
33404;BME280;19751;40.274;18.268;2023-04-23T01:47:59;101036.03;;;14.18;100.00
33404;BME280;19751;40.274;18.268;2023-04-23T01:50:26;101029.34;;;14.14;100.00
33404;BME280;19751;40.274;18.268;2023-04-23T01:52:54;101028.28;;;14.09;100.00
33404;BME280;19751;40.274;18.268;2023-04-23T01:55:19;101031.19;;;14.14;100.00
33404;BME280;19751;40.274;18.268;2023-04-23T01:57:45;101036.22;;;14.17;100.00
33404;BME280;19751;40.274;18.268;2023-04-23T02:00:12;101034.34;;;14.24;100.00
33404;BME280;19751;40.274;18.268;2023-04-23T02:02:40;101034.13;;;14.26;100.00
33404;BME280;19751;40.274;18.268;2023-04-23T02:05:12;101036.66;;;14.27;100.00
33404;BME280;19751;40.274;18.268;2023-04-23T02:07:38;101042.06;;;14.27;100.00
33404;BME280;19751;40.274;18.268;2023-04-23T02:10:04;101037.88;;;14.25;100.00
33404;BME280;19751;40.274;18.268;2023-04-23T02:12:30;101038.28;;;14.22;100.00
33404;BME280;19751;40.274;18.268;2023-04-23T02:14:55;101034.75;;;14.21;100.00
33404;BME280;19751;40.274;18.268;2023-04-23T02:17:21;101041.00;;;14.22;100.00
33404;BME280;19751;40.274;18.268;2023-04-23T02:19:49;101034.56;;;14.23;100.00
33404;BME280;19751;40.274;18.268;2023-04-23T02:22:16;101039.38;;;14.27;100.00
33404;BME280;19751;40.274;18.268;2023-04-23T02:24:42;101044.34;;;14.30;100.00
33404;BME280;19751;40.274;18.268;2023-04-23T02:27:08;101038.72;;;14.25;100.00
33404;BME280;19751;40.274;18.268;2023-04-23T02:29:34;101041.63;;;14.17;100.00
33404;BME280;19751;40.274;18.268;2023-04-23T02:32:01;101035.78;;;14.13;100.00
33404;BME280;19751;40.274;18.268;2023-04-23T02:34:27;101031.63;;;14.11;100.00
33404;BME280;19751;40.274;18.268;2023-04-23T02:36:56;101036.22;;;14.10;100.00
33404;BME280;19751;40.274;18.268;2023-04-23T02:39:22;101030.78;;;14.10;100.00
33404;BME280;19751;40.274;18.268;2023-04-23T02:41:48;101032.03;;;14.08;100.00
33404;BME280;19751;40.274;18.268;2023-04-23T02:44:13;101030.56;;;14.05;100.00
33404;BME280;19751;40.274;18.268;2023-04-23T02:46:39;101028.88;;;14.04;100.00
33404;BME280;19751;40.274;18.268;2023-04-23T02:49:04;101032.88;;;14.02;100.00
33404;BME280;19751;40.274;18.268;2023-04-23T02:51:31;101033.88;;;13.94;100.00
33404;BME280;19751;40.274;18.268;2023-04-23T02:53:57;101030.31;;;13.87;100.00
33404;BME280;19751;40.274;18.268;2023-04-23T02:56:22;101041.09;;;13.80;100.00
33404;BME280;19751;40.274;18.268;2023-04-23T02:58:48;101031.50;;;13.71;100.00
33404;BME280;19751;40.274;18.268;2023-04-23T03:01:14;101035.22;;;13.63;100.00
33404;BME280;19751;40.274;18.268;2023-04-23T03:03:40;101041.91;;;13.61;100.00
33404;BME280;19751;40.274;18.268;2023-04-23T03:06:06;101030.22;;;13.60;100.00
33404;BME280;19751;40.274;18.268;2023-04-23T03:08:32;101041.28;;;13.65;100.00
33404;BME280;19751;40.274;18.268;2023-04-23T03:10:57;101039.19;;;13.67;100.00
33404;BME280;19751;40.274;18.268;2023-04-23T03:13:24;101039.22;;;13.74;100.00
33404;BME280;19751;40.274;18.268;2023-04-23T03:15:51;101038.19;;;13.75;100.00
33404;BME280;19751;40.274;18.268;2023-04-23T03:18:17;101042.72;;;13.68;100.00
33404;BME280;19751;40.274;18.268;2023-04-23T03:20:42;101046.47;;;13.67;100.00
33404;BME280;19751;40.274;18.268;2023-04-23T03:23:08;101047.91;;;13.63;100.00
33404;BME280;19751;40.274;18.268;2023-04-23T03:25:34;101056.44;;;13.60;100.00
33404;BME280;19751;40.274;18.268;2023-04-23T03:27:59;101051.63;;;13.55;100.00
33404;BME280;19751;40.274;18.268;2023-04-23T03:30:26;101057.88;;;13.49;100.00
33404;BME280;19751;40.274;18.268;2023-04-23T03:32:53;101059.69;;;13.42;100.00
33404;BME280;19751;40.274;18.268;2023-04-23T03:35:19;101067.38;;;13.38;100.00
33404;BME280;19751;40.274;18.268;2023-04-23T03:37:44;101070.06;;;13.38;100.00
33404;BME280;19751;40.274;18.268;2023-04-23T03:40:10;101060.69;;;13.34;100.00
33404;BME280;19751;40.274;18.268;2023-04-23T03:42:35;101064.22;;;13.35;100.00
33404;BME280;19751;40.274;18.268;2023-04-23T03:45:01;101062.56;;;13.34;100.00
33404;BME280;19751;40.274;18.268;2023-04-23T03:47:27;101067.97;;;13.34;100.00
33404;BME280;19751;40.274;18.268;2023-04-23T03:49:53;101080.47;;;13.35;100.00
33404;BME280;19751;40.274;18.268;2023-04-23T03:52:19;101071.75;;;13.39;100.00
33404;BME280;19751;40.274;18.268;2023-04-23T03:54:45;101075.09;;;13.41;100.00
33404;BME280;19751;40.274;18.268;2023-04-23T03:57:10;101082.16;;;13.36;100.00
33404;BME280;19751;40.274;18.268;2023-04-23T03:59:36;101078.56;;;13.29;100.00
33404;BME280;19751;40.274;18.268;2023-04-23T04:02:02;101074.59;;;13.25;100.00
33404;BME280;19751;40.274;18.268;2023-04-23T04:04:31;101080.81;;;13.25;100.00
33404;BME280;19751;40.274;18.268;2023-04-23T04:06:57;101081.41;;;13.21;100.00
33404;BME280;19751;40.274;18.268;2023-04-23T04:09:24;101076.59;;;13.16;100.00
33404;BME280;19751;40.274;18.268;2023-04-23T04:11:51;101076.81;;;13.21;100.00
33404;BME280;19751;40.274;18.268;2023-04-23T04:14:18;101081.06;;;13.30;100.00
33404;BME280;19751;40.274;18.268;2023-04-23T04:16:43;101085.47;;;13.38;100.00
33404;BME280;19751;40.274;18.268;2023-04-23T04:19:09;101079.69;;;13.41;100.00
33404;BME280;19751;40.274;18.268;2023-04-23T04:21:35;101080.13;;;13.45;100.00
33404;BME280;19751;40.274;18.268;2023-04-23T04:24:01;101083.84;;;13.43;100.00
33404;BME280;19751;40.274;18.268;2023-04-23T04:26:29;101081.56;;;13.40;100.00
33404;BME280;19751;40.274;18.268;2023-04-23T04:28:57;101086.31;;;13.38;100.00
33404;BME280;19751;40.274;18.268;2023-04-23T04:31:22;101090.00;;;13.31;100.00
33404;BME280;19751;40.274;18.268;2023-04-23T04:33:48;101090.81;;;13.25;100.00
33404;BME280;19751;40.274;18.268;2023-04-23T04:36:13;101090.22;;;13.29;100.00
33404;BME280;19751;40.274;18.268;2023-04-23T04:38:39;101095.84;;;13.34;100.00
33404;BME280;19751;40.274;18.268;2023-04-23T04:41:06;101091.34;;;13.41;100.00
33404;BME280;19751;40.274;18.268;2023-04-23T04:43:32;101086.16;;;13.47;100.00
33404;BME280;19751;40.274;18.268;2023-04-23T04:45:58;101087.63;;;13.49;100.00
33404;BME280;19751;40.274;18.268;2023-04-23T04:48:24;101091.41;;;13.55;100.00
33404;BME280;19751;40.274;18.268;2023-04-23T04:50:50;101082.06;;;13.57;100.00
33404;BME280;19751;40.274;18.268;2023-04-23T04:53:17;101088.91;;;13.60;100.00
33404;BME280;19751;40.274;18.268;2023-04-23T04:55:43;101086.47;;;13.65;100.00
33404;BME280;19751;40.274;18.268;2023-04-23T04:58:08;101096.03;;;13.67;100.00
33404;BME280;19751;40.274;18.268;2023-04-23T05:00:34;101101.06;;;13.71;100.00
33404;BME280;19751;40.274;18.268;2023-04-23T05:02:59;101093.56;;;13.73;100.00
33404;BME280;19751;40.274;18.268;2023-04-23T05:05:26;101094.41;;;13.73;100.00
33404;BME280;19751;40.274;18.268;2023-04-23T05:07:52;101093.38;;;13.74;100.00
33404;BME280;19751;40.274;18.268;2023-04-23T05:10:23;101090.88;;;13.79;100.00
33404;BME280;19751;40.274;18.268;2023-04-23T05:12:49;101094.88;;;13.83;100.00
33404;BME280;19751;40.274;18.268;2023-04-23T05:15:16;101097.59;;;13.90;100.00
33404;BME280;19751;40.274;18.268;2023-04-23T05:17:41;101103.03;;;13.97;100.00
33404;BME280;19751;40.274;18.268;2023-04-23T05:20:08;101101.41;;;14.02;100.00
33404;BME280;19751;40.274;18.268;2023-04-23T05:22:39;101102.03;;;14.04;100.00
33404;BME280;19751;40.274;18.268;2023-04-23T05:25:06;101097.66;;;14.10;100.00
33404;BME280;19751;40.274;18.268;2023-04-23T05:27:32;101098.50;;;14.17;100.00
33404;BME280;19751;40.274;18.268;2023-04-23T05:29:57;101099.38;;;14.24;100.00
33404;BME280;19751;40.274;18.268;2023-04-23T05:32:23;101108.75;;;14.28;100.00
33404;BME280;19751;40.274;18.268;2023-04-23T05:34:50;101101.25;;;14.30;100.00
33404;BME280;19751;40.274;18.268;2023-04-23T05:37:15;101104.59;;;14.32;100.00
33404;BME280;19751;40.274;18.268;2023-04-23T05:39:41;101108.56;;;14.36;100.00
33404;BME280;19751;40.274;18.268;2023-04-23T05:42:06;101108.34;;;14.38;100.00
33404;BME280;19751;40.274;18.268;2023-04-23T05:44:32;101106.28;;;14.40;100.00
33404;BME280;19751;40.274;18.268;2023-04-23T05:46:57;101104.84;;;14.44;100.00
33404;BME280;19751;40.274;18.268;2023-04-23T05:49:23;101099.84;;;14.48;100.00
33404;BME280;19751;40.274;18.268;2023-04-23T05:51:48;101107.38;;;14.52;100.00
33404;BME280;19751;40.274;18.268;2023-04-23T05:54:15;101105.94;;;14.56;100.00
33404;BME280;19751;40.274;18.268;2023-04-23T05:56:41;101104.25;;;14.62;100.00
33404;BME280;19751;40.274;18.268;2023-04-23T05:59:06;101105.28;;;14.67;100.00
33404;BME280;19751;40.274;18.268;2023-04-23T06:01:32;101106.38;;;14.73;100.00
33404;BME280;19751;40.274;18.268;2023-04-23T06:03:57;101104.47;;;14.80;100.00
33404;BME280;19751;40.274;18.268;2023-04-23T06:06:23;101108.03;;;14.87;100.00
33404;BME280;19751;40.274;18.268;2023-04-23T06:08:48;101109.69;;;14.95;100.00
33404;BME280;19751;40.274;18.268;2023-04-23T06:11:15;101100.75;;;15.01;100.00
33404;BME280;19751;40.274;18.268;2023-04-23T06:13:41;101110.72;;;15.07;100.00
33404;BME280;19751;40.274;18.268;2023-04-23T06:16:07;101097.59;;;15.11;100.00
33404;BME280;19751;40.274;18.268;2023-04-23T06:18:33;101105.91;;;15.16;100.00
33404;BME280;19751;40.274;18.268;2023-04-23T06:20:59;101108.00;;;15.21;100.00
33404;BME280;19751;40.274;18.268;2023-04-23T06:23:32;101103.63;;;15.26;100.00
33404;BME280;19751;40.274;18.268;2023-04-23T06:25:58;101114.69;;;15.31;100.00
33404;BME280;19751;40.274;18.268;2023-04-23T06:28:25;101105.91;;;15.36;100.00
33404;BME280;19751;40.274;18.268;2023-04-23T06:30:51;101106.91;;;15.41;100.00
33404;BME280;19751;40.274;18.268;2023-04-23T06:33:16;101107.31;;;15.45;100.00
33404;BME280;19751;40.274;18.268;2023-04-23T06:35:42;101096.88;;;15.49;100.00
33404;BME280;19751;40.274;18.268;2023-04-23T06:38:07;101100.84;;;15.53;100.00
33404;BME280;19751;40.274;18.268;2023-04-23T06:40:33;101101.03;;;15.58;100.00
33404;BME280;19751;40.274;18.268;2023-04-23T06:42:58;101105.81;;;15.62;100.00
33404;BME280;19751;40.274;18.268;2023-04-23T06:45:24;101100.81;;;15.66;100.00
33404;BME280;19751;40.274;18.268;2023-04-23T06:47:49;101095.81;;;15.70;100.00
33404;BME280;19751;40.274;18.268;2023-04-23T06:50:15;101103.31;;;15.74;100.00
33404;BME280;19751;40.274;18.268;2023-04-23T06:52:41;101101.59;;;15.80;100.00
33404;BME280;19751;40.274;18.268;2023-04-23T06:55:07;101097.63;;;15.82;100.00
33404;BME280;19751;40.274;18.268;2023-04-23T06:57:33;101099.09;;;15.85;100.00
33404;BME280;19751;40.274;18.268;2023-04-23T06:59:59;101101.16;;;15.89;100.00
33404;BME280;19751;40.274;18.268;2023-04-23T07:02:24;101109.50;;;15.95;100.00
33404;BME280;19751;40.274;18.268;2023-04-23T07:04:50;101114.50;;;15.98;100.00
33404;BME280;19751;40.274;18.268;2023-04-23T07:07:16;101113.03;;;16.02;100.00
33404;BME280;19751;40.274;18.268;2023-04-23T07:09:42;101110.91;;;16.04;100.00
33404;BME280;19751;40.274;18.268;2023-04-23T07:12:07;101117.38;;;16.09;100.00
33404;BME280;19751;40.274;18.268;2023-04-23T07:14:33;101114.84;;;16.14;100.00
33404;BME280;19751;40.274;18.268;2023-04-23T07:16:59;101117.50;;;16.21;100.00
33404;BME280;19751;40.274;18.268;2023-04-23T07:19:24;101114.16;;;16.26;100.00
33404;BME280;19751;40.274;18.268;2023-04-23T07:21:50;101115.16;;;16.31;100.00
33404;BME280;19751;40.274;18.268;2023-04-23T07:24:17;101114.72;;;16.34;100.00
33404;BME280;19751;40.274;18.268;2023-04-23T07:26:44;101113.00;;;16.40;100.00
33404;BME280;19751;40.274;18.268;2023-04-23T07:29:10;101116.72;;;16.46;100.00
33404;BME280;19751;40.274;18.268;2023-04-23T07:31:36;101117.53;;;16.53;100.00
33404;BME280;19751;40.274;18.268;2023-04-23T07:34:02;101117.94;;;16.56;100.00
33404;BME280;19751;40.274;18.268;2023-04-23T07:36:40;101117.50;;;16.59;100.00
33404;BME280;19751;40.274;18.268;2023-04-23T07:39:12;101118.72;;;16.63;100.00
33404;BME280;19751;40.274;18.268;2023-04-23T07:41:37;101110.94;;;16.67;100.00
33404;BME280;19751;40.274;18.268;2023-04-23T07:44:03;101117.00;;;16.69;100.00
33404;BME280;19751;40.274;18.268;2023-04-23T07:46:28;101114.69;;;16.73;100.00
33404;BME280;19751;40.274;18.268;2023-04-23T07:48:54;101107.13;;;16.75;100.00
33404;BME280;19751;40.274;18.268;2023-04-23T07:51:20;101116.75;;;16.77;100.00
33404;BME280;19751;40.274;18.268;2023-04-23T07:53:47;101105.44;;;16.80;100.00
33404;BME280;19751;40.274;18.268;2023-04-23T07:56:16;101115.03;;;16.83;100.00
33404;BME280;19751;40.274;18.268;2023-04-23T07:58:41;101120.88;;;16.86;100.00
33404;BME280;19751;40.274;18.268;2023-04-23T08:01:07;101119.38;;;16.90;100.00
33404;BME280;19751;40.274;18.268;2023-04-23T08:03:32;101118.69;;;16.95;100.00
33404;BME280;19751;40.274;18.268;2023-04-23T08:05:58;101117.59;;;17.03;100.00
33404;BME280;19751;40.274;18.268;2023-04-23T08:08:23;101116.72;;;17.09;98.17
33404;BME280;19751;40.274;18.268;2023-04-23T08:10:49;101115.22;;;17.13;98.38
33404;BME280;19751;40.274;18.268;2023-04-23T08:13:15;101115.56;;;17.17;97.11
33404;BME280;19751;40.274;18.268;2023-04-23T08:15:40;101111.13;;;17.22;96.76
33404;BME280;19751;40.274;18.268;2023-04-23T08:18:06;101113.19;;;17.27;95.23
33404;BME280;19751;40.274;18.268;2023-04-23T08:20:31;101107.28;;;17.30;95.31
33404;BME280;19751;40.274;18.268;2023-04-23T08:22:57;101112.28;;;17.33;93.45
33404;BME280;19751;40.274;18.268;2023-04-23T08:25:22;101111.00;;;17.35;92.23
33404;BME280;19751;40.274;18.268;2023-04-23T08:27:48;101121.44;;;17.38;90.13
33404;BME280;19751;40.274;18.268;2023-04-23T08:30:14;101115.72;;;17.47;89.69
33404;BME280;19751;40.274;18.268;2023-04-23T08:32:40;101116.69;;;17.52;85.51
33404;BME280;19751;40.274;18.268;2023-04-23T08:35:06;101115.41;;;17.55;85.46
33404;BME280;19751;40.274;18.268;2023-04-23T08:37:32;101104.03;;;17.58;85.81
33404;BME280;19751;40.274;18.268;2023-04-23T08:40:00;101109.88;;;17.61;84.84
33404;BME280;19751;40.274;18.268;2023-04-23T08:42:40;101112.53;;;17.68;85.71
33404;BME280;19751;40.274;18.268;2023-04-23T08:45:07;101108.28;;;17.72;86.13
33404;BME280;19751;40.274;18.268;2023-04-23T08:47:33;101102.44;;;17.75;86.50
33404;BME280;19751;40.274;18.268;2023-04-23T08:50:00;101099.22;;;17.78;86.40
33404;BME280;19751;40.274;18.268;2023-04-23T08:52:30;101102.13;;;17.83;84.22
33404;BME280;19751;40.274;18.268;2023-04-23T08:55:01;101101.44;;;17.88;85.35
33404;BME280;19751;40.274;18.268;2023-04-23T08:57:29;101108.28;;;17.91;85.26
33404;BME280;19751;40.274;18.268;2023-04-23T08:59:55;101102.41;;;17.94;85.03
33404;BME280;19751;40.274;18.268;2023-04-23T09:02:21;101106.47;;;18.03;84.24
33404;BME280;19751;40.274;18.268;2023-04-23T09:04:47;101096.56;;;18.20;79.04
33404;BME280;19751;40.274;18.268;2023-04-23T09:07:12;101099.22;;;18.27;78.86
33404;BME280;19751;40.274;18.268;2023-04-23T09:09:39;101102.31;;;18.30;79.20
33404;BME280;19751;40.274;18.268;2023-04-23T09:12:06;101095.56;;;18.33;79.71
33404;BME280;19751;40.274;18.268;2023-04-23T09:14:33;101096.41;;;18.33;79.56
33404;BME280;19751;40.274;18.268;2023-04-23T09:16:59;101091.31;;;18.37;79.93
33404;BME280;19751;40.274;18.268;2023-04-23T09:19:26;101085.38;;;18.40;80.16
33404;BME280;19751;40.274;18.268;2023-04-23T09:22:01;101093.69;;;18.45;79.95
33404;BME280;19751;40.274;18.268;2023-04-23T09:24:26;101088.59;;;18.49;79.73
33404;BME280;19751;40.274;18.268;2023-04-23T09:26:52;101094.69;;;18.51;78.89
33404;BME280;19751;40.274;18.268;2023-04-23T09:29:22;101090.88;;;18.52;78.56
33404;BME280;19751;40.274;18.268;2023-04-23T09:31:50;101086.88;;;18.54;77.90
33404;BME280;19751;40.274;18.268;2023-04-23T09:34:20;101088.53;;;18.55;77.56
33404;BME280;19751;40.274;18.268;2023-04-23T09:36:48;101077.97;;;18.59;76.34
33404;BME280;19751;40.274;18.268;2023-04-23T09:39:16;101081.06;;;18.62;74.94
33404;BME280;19751;40.274;18.268;2023-04-23T09:41:43;101080.94;;;18.69;74.30
33404;BME280;19751;40.274;18.268;2023-04-23T09:44:10;101085.25;;;18.77;74.40
33404;BME280;19751;40.274;18.268;2023-04-23T09:46:41;101082.19;;;18.85;73.25
33404;BME280;19751;40.274;18.268;2023-04-23T09:49:08;101089.19;;;18.93;73.44
33404;BME280;19751;40.274;18.268;2023-04-23T09:51:37;101089.06;;;18.99;72.37
33404;BME280;19751;40.274;18.268;2023-04-23T09:54:11;101090.88;;;19.05;65.21
33404;BME280;19751;40.274;18.268;2023-04-23T09:56:37;101093.13;;;19.20;55.78
33404;BME280;19751;40.274;18.268;2023-04-23T09:59:27;101087.91;;;19.30;55.82
33404;BME280;19751;40.274;18.268;2023-04-23T10:01:53;101090.16;;;19.33;54.31
33404;BME280;19751;40.274;18.268;2023-04-23T10:04:21;101088.47;;;19.32;53.88
33404;BME280;19751;40.274;18.268;2023-04-23T10:06:52;101082.91;;;19.27;58.88
33404;BME280;19751;40.274;18.268;2023-04-23T10:09:18;101087.19;;;19.23;67.72
33404;BME280;19751;40.274;18.268;2023-04-23T10:11:49;101081.72;;;19.23;73.98
33404;BME280;19751;40.274;18.268;2023-04-23T10:14:15;101081.13;;;19.21;78.35
33404;BME280;19751;40.274;18.268;2023-04-23T10:16:43;101085.16;;;19.19;80.50
33404;BME280;19751;40.274;18.268;2023-04-23T10:19:13;101082.69;;;19.17;81.65
33404;BME280;19751;40.274;18.268;2023-04-23T10:21:40;101079.22;;;19.22;82.30
33404;BME280;19751;40.274;18.268;2023-04-23T10:24:09;101082.91;;;19.27;82.62
33404;BME280;19751;40.274;18.268;2023-04-23T10:26:38;101087.78;;;19.25;82.01
33404;BME280;19751;40.274;18.268;2023-04-23T10:29:12;101082.31;;;19.25;81.88
33404;BME280;19751;40.274;18.268;2023-04-23T10:31:39;101074.72;;;19.27;82.28
33404;BME280;19751;40.274;18.268;2023-04-23T10:34:06;101073.63;;;19.28;82.53
33404;BME280;19751;40.274;18.268;2023-04-23T10:36:33;101069.25;;;19.27;82.30
33404;BME280;19751;40.274;18.268;2023-04-23T10:38:59;101065.78;;;19.32;81.65
33404;BME280;19751;40.274;18.268;2023-04-23T10:41:33;101071.72;;;19.41;81.88
33404;BME280;19751;40.274;18.268;2023-04-23T10:44:02;101076.81;;;19.49;81.85
33404;BME280;19751;40.274;18.268;2023-04-23T10:46:28;101075.25;;;19.53;81.25
33404;BME280;19751;40.274;18.268;2023-04-23T10:49:10;101064.94;;;19.55;80.39
33404;BME280;19751;40.274;18.268;2023-04-23T10:51:38;101071.31;;;19.60;79.99
33404;BME280;19751;40.274;18.268;2023-04-23T10:54:04;101066.84;;;19.66;80.28
33404;BME280;19751;40.274;18.268;2023-04-23T10:56:31;101057.09;;;19.70;80.28
33404;BME280;19751;40.274;18.268;2023-04-23T10:58:57;101058.38;;;19.79;79.82
33404;BME280;19751;40.274;18.268;2023-04-23T11:01:29;101054.41;;;19.87;79.08
33404;BME280;19751;40.274;18.268;2023-04-23T11:03:55;101053.53;;;19.98;78.84
33404;BME280;19751;40.274;18.268;2023-04-23T11:11:55;101050.22;;;20.25;75.87
33404;BME280;19751;40.274;18.268;2023-04-23T11:17:11;101046.03;;;20.51;69.78
33404;BME280;19751;40.274;18.268;2023-04-23T11:19:38;101054.84;;;20.70;68.95
33404;BME280;19751;40.274;18.268;2023-04-23T11:22:19;101048.19;;;20.82;65.80
33404;BME280;19751;40.274;18.268;2023-04-23T11:24:45;101055.66;;;20.87;63.55
33404;BME280;19751;40.274;18.268;2023-04-23T11:27:13;101050.00;;;20.94;63.11
33404;BME280;19751;40.274;18.268;2023-04-23T11:29:40;101050.09;;;20.99;62.23
33404;BME280;19751;40.274;18.268;2023-04-23T11:32:07;101053.66;;;20.99;60.94
33404;BME280;19751;40.274;18.268;2023-04-23T11:34:45;101050.16;;;21.04;57.43
33404;BME280;19751;40.274;18.268;2023-04-23T11:37:13;101055.56;;;20.99;57.98
33404;BME280;19751;40.274;18.268;2023-04-23T11:39:39;101054.31;;;20.90;58.94
33404;BME280;19751;40.274;18.268;2023-04-23T11:42:15;101062.28;;;20.91;60.25
33404;BME280;19751;40.274;18.268;2023-04-23T11:44:45;101053.31;;;20.96;60.15
33404;BME280;19751;40.274;18.268;2023-04-23T11:47:12;101059.69;;;21.01;59.61
33404;BME280;19751;40.274;18.268;2023-04-23T11:49:42;101058.94;;;21.06;58.91
33404;BME280;19751;40.274;18.268;2023-04-23T11:52:08;101057.28;;;21.05;58.15
33404;BME280;19751;40.274;18.268;2023-04-23T11:54:34;101055.03;;;21.02;58.87
33404;BME280;19751;40.274;18.268;2023-04-23T11:57:01;101055.56;;;20.99;59.83
33404;BME280;19751;40.274;18.268;2023-04-23T11:59:30;101056.13;;;21.01;61.48
33404;BME280;19751;40.274;18.268;2023-04-23T12:01:58;101058.03;;;21.00;60.43
33404;BME280;19751;40.274;18.268;2023-04-23T12:04:26;101050.09;;;20.99;59.70
33404;BME280;19751;40.274;18.268;2023-04-23T12:06:53;101049.50;;;20.97;59.39
33404;BME280;19751;40.274;18.268;2023-04-23T12:09:21;101051.69;;;20.95;57.96
33404;BME280;19751;40.274;18.268;2023-04-23T12:11:48;101047.50;;;20.92;57.25
33404;BME280;19751;40.274;18.268;2023-04-23T12:14:18;101044.44;;;20.89;57.78
33404;BME280;19751;40.274;18.268;2023-04-23T12:16:46;101042.19;;;20.85;59.08
33404;BME280;19751;40.274;18.268;2023-04-23T12:19:20;101038.31;;;20.81;59.45
33404;BME280;19751;40.274;18.268;2023-04-23T12:21:54;101038.22;;;20.76;58.83
33404;BME280;19751;40.274;18.268;2023-04-23T12:24:30;101041.78;;;20.77;59.65
33404;BME280;19751;40.274;18.268;2023-04-23T12:27:13;101035.06;;;20.84;60.36
33404;BME280;19751;40.274;18.268;2023-04-23T12:29:40;101031.66;;;20.94;61.07
33404;BME280;19751;40.274;18.268;2023-04-23T12:32:09;101030.16;;;21.03;60.56
33404;BME280;19751;40.274;18.268;2023-04-23T12:34:35;101025.31;;;21.10;60.04
33404;BME280;19751;40.274;18.268;2023-04-23T12:37:05;101025.22;;;21.22;60.55
33404;BME280;19751;40.274;18.268;2023-04-23T12:39:34;101025.72;;;21.36;60.71